Time;durP1;ratioP1;P1;durP2;ratioP2;P2;SDS_P1;SDS_P2;PMS_P1;PMS_P2;Temp;Humidity;BMP_temperature;BMP_pressure;BME280_temperature;BME280_humidity;BME280_pressure;Samples;Min_cycle;Max_cycle;Signal;HPM_P1;HPM_P2
2023/10/05 00:03:31;;;;;;;9.10;5.07;;;;;;;9.38;100.00;100119.81;4974508;28;20117;-67
2023/10/05 00:06:16;;;;;;;6.93;5.40;;;;;;;9.40;100.00;100131.94;4974254;28;20454;-67
2023/10/05 00:08:49;;;;;;;10.23;5.57;;;;;;;9.35;100.00;100128.13;4973348;28;20047;-68
2023/10/05 00:14:10;;;;;;;7.70;5.63;;;;;;;9.35;100.00;100131.63;4964993;28;20117;-65
2023/10/05 00:16:36;;;;;;;7.03;5.63;;;;;;;9.36;100.00;100135.09;4974222;28;20113;-67
2023/10/05 00:19:09;;;;;;;8.20;5.07;;;;;;;9.28;100.00;100117.38;4973864;28;20117;-66
2023/10/05 00:21:35;;;;;;;8.10;5.40;;;;;;;9.43;100.00;100130.75;4972755;28;20026;-69
2023/10/05 00:24:06;;;;;;;11.77;5.43;;;;;;;9.51;100.00;100141.34;4974030;28;20057;-66
2023/10/05 00:26:35;;;;;;;6.20;5.13;;;;;;;9.12;100.00;100075.72;4991914;28;20133;-66
2023/10/05 00:29:18;;;;;;;;;;;;;;;9.58;100.00;100137.88;4993716;28;20044;-67
2023/10/05 00:31:44;;;;;;;7.33;5.27;;;;;;;9.59;100.00;100142.19;4992098;28;19916;-67
2023/10/05 00:34:27;;;;;;;7.50;5.13;;;;;;;9.56;100.00;100131.91;4993304;28;20466;-70
2023/10/05 00:36:58;;;;;;;8.30;5.83;;;;;;;9.52;100.00;100130.56;4992997;28;20083;-67
2023/10/05 00:39:25;;;;;;;8.60;6.33;;;;;;;9.46;100.00;100123.28;4993288;28;20088;-68
2023/10/05 00:42:08;;;;;;;9.57;8.37;;;;;;;9.38;100.00;100107.34;4993180;28;20034;-66
2023/10/05 00:44:36;;;;;;;20.73;12.20;;;;;;;9.43;100.00;100123.63;4993030;28;20026;-66
2023/10/05 00:47:06;;;;;;;18.13;14.83;;;;;;;9.53;100.00;100142.84;4993059;28;20105;-64
2023/10/05 00:49:59;;;;;;;21.53;16.27;;;;;;;9.45;100.00;100132.25;4993038;28;20264;-69
2023/10/05 00:52:26;;;;;;;19.50;16.30;;;;;;;9.40;100.00;100131.94;4992037;28;20038;-67
2023/10/05 00:54:59;;;;;;;24.37;16.07;;;;;;;9.32;100.00;100118.69;4992942;28;20030;-67
2023/10/05 00:57:26;;;;;;;22.60;16.73;;;;;;;9.47;100.00;100132.06;4993091;28;20034;-67
2023/10/05 01:03:13;;;;;;;19.50;15.67;;;;;;;9.51;100.00;100128.91;4993209;28;20026;-67
2023/10/05 01:05:34;;;;;;;;;;;;;;;9.56;100.00;100126.59;4993056;28;20113;-67
2023/10/05 01:08:04;;;;;;;20.37;15.77;;;;;;;9.32;100.00;100090.28;4992971;28;19909;-66
2023/10/05 01:10:42;;;;;;;23.00;16.10;;;;;;;9.42;100.00;100107.84;4993172;28;20072;-66
2023/10/05 01:13:34;;;;;;;;;;;;;;;9.61;100.00;100124.22;4993317;28;20033;-65
2023/10/05 01:16:15;;;;;;;22.03;16.87;;;;;;;9.43;100.00;100094.38;4992622;28;19910;-66
2023/10/05 01:18:42;;;;;;;28.43;18.83;;;;;;;9.58;100.00;100119.25;4992659;28;20030;-68
2023/10/05 01:21:09;;;;;;;22.33;15.70;;;;;;;9.58;100.00;100105.13;4993186;28;20102;-67
2023/10/05 01:23:41;;;;;;;23.63;17.57;;;;;;;9.61;100.00;100110.94;4993463;28;20077;-66
2023/10/05 01:26:12;;;;;;;21.97;16.73;;;;;;;9.71;100.00;100117.88;4993330;28;20046;-66
2023/10/05 01:28:41;;;;;;;20.17;15.17;;;;;;;9.75;100.00;100129.81;4992345;28;20034;-66
2023/10/05 01:31:14;;;;;;;22.70;16.70;;;;;;;9.46;100.00;100094.03;4992550;28;20034;-67
2023/10/05 01:33:40;;;;;;;21.40;15.03;;;;;;;9.68;100.00;100131.50;4992983;28;20026;-66
2023/10/05 01:36:06;;;;;;;20.23;15.03;;;;;;;9.55;100.00;100119.59;4992599;28;20081;-65
2023/10/05 01:38:37;;;;;;;17.13;12.50;;;;;;;9.67;100.00;100137.84;4992569;28;20034;-68
2023/10/05 01:41:09;;;;;;;15.43;10.97;;;;;;;9.28;100.00;100072.19;4992401;28;20034;-66
2023/10/05 01:43:35;;;;;;;13.30;9.63;;;;;;;9.59;100.00;100123.56;4992565;28;20042;-66
2023/10/05 01:46:04;;;;;;;12.00;10.03;;;;;;;9.56;100.00;100126.59;4992780;28;20136;-67
2023/10/05 01:48:30;;;;;;;;;;;;;;;9.68;100.00;100142.16;4995928;28;20034;-67
2023/10/05 01:51:13;;;;;;;11.47;7.67;;;;;;;9.43;100.00;100102.34;4996559;28;19917;-67
2023/10/05 01:53:40;;;;;;;13.23;7.93;;;;;;;9.52;100.00;100119.91;4996492;28;20034;-65
2023/10/05 01:56:17;;;;;;;10.27;7.60;;;;;;;9.63;100.00;100138.19;4996095;28;20022;-68
2023/10/05 01:58:43;;;;;;;10.67;7.30;;;;;;;9.74;100.00;100149.44;4995086;28;20053;-66
2023/10/05 02:01:10;;;;;;;10.50;6.23;;;;;;;9.57;100.00;100111.47;4996098;28;20034;-68
2023/10/05 02:03:36;;;;;;;6.90;5.37;;;;;;;9.60;100.00;100119.91;4996094;28;20030;-67
2023/10/05 02:06:11;;;;;;;8.67;5.47;;;;;;;9.73;100.00;100145.94;4994841;28;20092;-66
2023/10/05 02:08:40;;;;;;;8.13;6.23;;;;;;;9.72;100.00;100149.59;4994668;28;20050;-65
2023/10/05 02:11:06;;;;;;;6.35;4.45;;;;;;;9.59;100.00;100126.22;4995933;28;20093;-67
2023/10/05 02:13:33;;;;;;;5.67;4.30;;;;;;;9.73;100.00;100147.78;4995915;28;20080;-66
2023/10/05 02:15:59;;;;;;;5.40;3.20;;;;;;;9.56;100.00;100120.44;4995945;28;20022;-67
2023/10/05 02:18:30;;;;;;;5.93;4.33;;;;;;;9.35;100.00;100090.94;4997045;28;20026;-67
2023/10/05 02:21:07;;;;;;;4.10;3.73;;;;;;;9.62;100.00;100135.69;4996006;28;20034;-68
2023/10/05 02:23:40;;;;;;;3.80;3.40;;;;;;;9.62;100.00;100133.88;4995571;28;20374;-68
2023/10/05 02:28:51;;;;;;;4.17;3.67;;;;;;;9.48;100.00;100113.28;4995367;28;20470;-67
2023/10/05 02:31:20;;;;;;;4.33;3.90;;;;;;;9.57;100.00;100133.56;4995173;28;20069;-66
2023/10/05 02:33:45;;;;;;;2.50;2.28;;;;;;;9.47;100.00;100127.59;4995435;28;20480;-68
2023/10/05 02:36:11;;;;;;;3.40;2.90;;;;;;;9.15;100.00;100079.84;4995272;28;20121;-67
2023/10/05 02:38:39;;;;;;;4.17;2.17;;;;;;;9.43;100.00;100147.53;4995472;28;20030;-66
2023/10/05 02:41:08;;;;;;;3.37;2.43;;;;;;;9.44;100.00;100153.69;4995275;28;20080;-66
2023/10/05 02:43:40;;;;;;;2.37;2.13;;;;;;;9.29;100.00;100151.72;4993754;28;20022;-67
2023/10/05 02:46:10;;;;;;;2.20;1.70;;;;;;;9.29;100.00;100166.84;4995253;28;20462;-65
2023/10/05 02:48:38;;;;;;;2.97;1.83;;;;;;;9.17;100.00;100162.88;4994024;28;20022;-66
2023/10/05 02:51:05;;;;;;;3.35;1.73;;;;;;;9.08;100.00;100164.69;4995285;28;20439;-66
2023/10/05 02:53:46;;;;;;;2.63;2.13;;;;;;;9.03;100.00;100167.03;4995289;28;20034;-66
2023/10/05 02:56:27;;;;;;;4.93;2.00;;;;;;;8.95;100.00;100165.19;4993780;28;20545;-65
2023/10/05 02:58:56;;;;;;;2.03;1.83;;;;;;;8.84;100.00;100160.22;4994576;28;20477;-68
2023/10/05 03:01:23;;;;;;;2.50;1.90;;;;;;;8.69;100.00;100148.63;4994942;28;20034;-65
2023/10/05 03:03:54;;;;;;;2.40;1.57;;;;;;;8.86;100.00;100176.81;4993759;28;20405;-67
2023/10/05 03:06:23;;;;;;;1.80;1.40;;;;;;;8.78;100.00;100168.84;4993841;28;20378;-67
2023/10/05 03:08:50;;;;;;;2.00;1.70;;;;;;;8.87;100.00;100177.66;4993371;28;20482;-64
2023/10/05 03:11:18;;;;;;;1.60;1.30;;;;;;;8.82;100.00;100167.53;4994500;28;20026;-67
2023/10/05 03:13:45;;;;;;;2.17;1.50;;;;;;;8.87;100.00;100172.34;4994738;28;20474;-65
2023/10/05 03:16:10;;;;;;;1.50;1.40;;;;;;;8.87;100.00;100172.34;4993226;28;20030;-66
2023/10/05 03:18:40;;;;;;;2.80;1.40;;;;;;;8.80;100.00;100166.88;4994469;28;20030;-66
2023/10/05 03:21:13;;;;;;;3.37;1.77;;;;;;;8.91;100.00;100184.28;4994666;28;20034;-66
2023/10/05 03:23:42;;;;;;;1.77;1.47;;;;;;;8.66;100.00;100151.59;4993482;28;20084;-65
2023/10/05 03:26:09;;;;;;;;;;;;;;;8.91;100.00;100193.09;4998489;28;20046;-65
2023/10/05 03:28:35;;;;;;;2.50;1.77;;;;;;;8.89;100.00;100187.09;4994543;28;20317;-67
2023/10/05 03:31:07;;;;;;;1.77;1.53;;;;;;;8.87;100.00;100189.09;4994324;28;20482;-64
2023/10/05 03:33:34;;;;;;;2.37;1.63;;;;;;;8.89;100.00;100186.28;4994344;28;20445;-68
2023/10/05 03:36:06;;;;;;;2.07;1.87;;;;;;;8.80;100.00;100182.78;4994346;28;20168;-68
2023/10/05 03:38:35;;;;;;;3.30;1.90;;;;;;;8.75;100.00;100169.19;4994057;28;20041;-65
2023/10/05 03:41:04;;;;;;;2.13;1.60;;;;;;;8.80;100.00;100176.66;4994407;28;20057;-66
2023/10/05 03:43:31;;;;;;;2.17;1.77;;;;;;;8.73;100.00;100173.84;4992929;28;20033;-65
2023/10/05 03:45:57;;;;;;;2.20;1.90;;;;;;;8.73;100.00;100176.50;4994116;28;20113;-68
2023/10/05 03:48:23;;;;;;;1.97;1.67;;;;;;;8.87;100.00;100197.06;4992698;28;20161;-65
2023/10/05 03:50:48;;;;;;;3.83;2.37;;;;;;;8.78;100.00;100184.78;4992787;28;20026;-66
2023/10/05 03:53:16;;;;;;;2.60;2.07;;;;;;;8.82;100.00;100202.03;4993963;28;20085;-68
2023/10/05 03:55:42;;;;;;;3.65;2.45;;;;;;;8.84;100.00;100201.88;4994540;28;20030;-66
2023/10/05 03:58:07;;;;;;;3.57;1.70;;;;;;;8.86;100.00;100203.38;4992341;28;20383;-68
2023/10/05 04:00:36;;;;;;;4.13;2.10;;;;;;;8.67;100.00;100163.84;4993446;28;20026;-66
2023/10/05 04:03:06;;;;;;;;;;;;;;;9.00;100.00;100201.91;4993838;28;20046;-66
2023/10/05 04:05:32;;;;;;;1.90;1.67;;;;;;;8.99;100.00;100203.72;4992732;28;20012;-66
2023/10/05 04:08:10;;;;;;;2.00;1.80;;;;;;;8.95;100.00;100202.38;4994101;28;20044;-64
2023/10/05 04:10:46;;;;;;;1.65;1.30;;;;;;;8.88;100.00;100196.06;4992445;28;20022;-65
2023/10/05 04:13:14;;;;;;;1.43;1.33;;;;;;;8.88;100.00;100206.69;4992247;28;20508;-67
2023/10/05 04:15:40;;;;;;;6.38;1.75;;;;;;;8.83;100.00;100209.03;4993666;28;20084;-66
2023/10/05 04:18:11;;;;;;;1.53;1.40;;;;;;;8.68;100.00;100189.44;4993419;28;20030;-67
2023/10/05 04:20:36;;;;;;;2.00;1.83;;;;;;;8.63;100.00;100189.06;4993336;28;20441;-67
2023/10/05 04:23:02;;;;;;;1.97;1.60;;;;;;;8.40;100.00;100153.56;4993087;28;20122;-67
2023/10/05 04:25:31;;;;;;;2.80;1.80;;;;;;;8.66;100.00;100186.09;4993531;28;20134;-66
2023/10/05 04:27:57;;;;;;;1.77;1.60;;;;;;;8.87;100.00;100206.84;4994295;28;20179;-68
2023/10/05 04:30:23;;;;;;;2.73;1.70;;;;;;;8.53;100.00;100149.44;4993425;28;20473;-66
2023/10/05 04:32:49;;;;;;;1.60;1.37;;;;;;;8.75;100.00;100190.44;4993833;28;20037;-66
2023/10/05 04:35:28;;;;;;;2.33;1.67;;;;;;;7.98;100.00;100075.69;4993601;28;20109;-67
2023/10/05 04:37:56;;;;;;;3.57;1.60;;;;;;;8.73;100.00;100197.72;4993606;28;20108;-65
2023/10/05 04:40:24;;;;;;;1.85;1.70;;;;;;;8.82;100.00;100217.97;4993028;28;20046;-66
2023/10/05 04:42:51;;;;;;;3.78;2.10;;;;;;;8.62;100.00;100184.75;4983301;28;20378;-68
2023/10/05 04:45:20;;;;;;;2.00;1.67;;;;;;;8.65;100.00;100195.03;4973443;28;20034;-65
2023/10/05 04:47:49;;;;;;;2.00;1.80;;;;;;;8.60;100.00;100203.50;4973598;28;20035;-67
2023/10/05 04:50:15;;;;;;;2.40;1.75;;;;;;;8.51;100.00;100193.06;4973386;28;20022;-67
2023/10/05 04:52:45;;;;;;;2.33;1.60;;;;;;;8.51;100.00;100195.69;4972875;28;20042;-68
2023/10/05 04:55:23;;;;;;;2.80;2.10;;;;;;;8.62;100.00;100222.75;4975176;28;20133;-68
2023/10/05 04:57:55;;;;;;;4.10;2.05;;;;;;;8.65;100.00;100235.69;4975228;28;20348;-70
2023/10/05 05:05:53;;;;;;;3.42;1.55;;;;;;;8.65;100.00;100229.56;4971517;28;20030;-66
2023/10/05 05:08:20;;;;;;;3.27;2.03;;;;;;;8.61;100.00;100221.09;4975165;28;20378;-68
2023/10/05 05:10:45;;;;;;;4.63;2.10;;;;;;;8.79;100.00;100236.91;4980226;28;20468;-67
2023/10/05 05:13:11;;;;;;;2.53;1.77;;;;;;;8.51;100.00;100187.75;4982532;28;20113;-67
2023/10/05 05:15:38;;;;;;;2.67;2.30;;;;;;;8.98;100.00;100236.59;4983898;28;20776;-68
2023/10/05 05:18:14;;;;;;;2.67;1.97;;;;;;;8.96;100.00;100212.03;4978332;28;20044;-68
2023/10/05 05:20:47;;;;;;;5.37;2.37;;;;;;;9.21;100.00;100226.13;4983911;28;20392;-68
2023/10/05 05:23:13;;;;;;;2.17;1.87;;;;;;;9.44;100.00;100239.56;4984532;28;20117;-69
2023/10/05 05:25:44;;;;;;;3.10;1.60;;;;;;;9.54;100.00;100250.88;4986860;28;20126;-66
2023/10/05 05:28:10;;;;;;;3.43;1.60;;;;;;;8.81;100.00;100109.28;4983714;28;20054;-69
2023/10/05 05:30:39;;;;;;;5.40;2.30;;;;;;;9.51;100.00;100213.13;4983920;28;20023;-69
2023/10/05 05:33:09;;;;;;;2.93;2.17;;;;;;;9.81;100.00;100246.13;4994017;28;20029;-70
2023/10/05 05:35:39;;;;;;;2.30;1.77;;;;;;;9.15;100.00;100131.16;4996472;28;20022;-67
2023/10/05 05:38:09;;;;;;;2.43;1.60;;;;;;;10.02;100.00;100259.72;4996504;28;20041;-67
2023/10/05 05:40:36;;;;;;;2.77;2.00;;;;;;;10.09;100.00;100250.03;4996854;28;20315;-69
2023/10/05 05:43:11;;;;;;;3.70;1.80;;;;;;;10.21;100.00;100262.03;4996112;28;20038;-70
2023/10/05 05:45:43;;;;;;;2.33;1.73;;;;;;;10.32;100.00;100260.78;4991612;28;20054;-67
2023/10/05 05:48:15;;;;;;;2.87;1.70;;;;;;;10.23;100.00;100252.03;4982688;28;20030;-67
2023/10/05 05:50:42;;;;;;;2.37;1.50;;;;;;;10.18;100.00;100242.88;4985838;28;20125;-68
2023/10/05 05:53:11;;;;;;;3.23;1.90;;;;;;;10.12;100.00;100260.38;4984814;28;20497;-67
2023/10/05 05:55:44;;;;;;;4.63;2.47;;;;;;;10.08;100.00;100253.69;4985385;28;20027;-66
2023/10/05 05:58:16;;;;;;;3.33;1.70;;;;;;;10.14;100.00;100263.69;4986635;28;20030;-63
2023/10/05 06:00:45;;;;;;;3.30;2.07;;;;;;;10.12;100.00;100260.38;4986308;28;20038;-68
2023/10/05 06:03:11;;;;;;;3.43;1.93;;;;;;;9.66;100.00;100181.38;4988515;28;20037;-69
2023/10/05 06:05:37;;;;;;;7.53;2.23;;;;;;;10.26;100.00;100271.31;4995656;28;20190;-65
2023/10/05 06:08:03;;;;;;;3.43;1.90;;;;;;;10.28;100.00;100285.28;5000338;28;20523;-64
2023/10/05 06:10:34;;;;;;;2.80;1.57;;;;;;;10.27;100.00;100263.16;4996425;28;20062;-67
2023/10/05 06:13:01;;;;;;;4.73;2.23;;;;;;;10.23;100.00;100252.03;4995927;28;20385;-66
2023/10/05 06:15:28;;;;;;;3.57;1.90;;;;;;;10.28;100.00;100248.00;4998555;28;20030;-65
2023/10/05 06:17:54;;;;;;;2.67;2.07;;;;;;;10.42;100.00;100272.09;4998673;28;20145;-67
2023/10/05 06:20:19;;;;;;;3.53;2.30;;;;;;;10.07;100.00;100209.47;4997162;28;20502;-68
2023/10/05 06:22:47;;;;;;;4.63;2.37;;;;;;;10.36;100.00;100255.94;4997162;28;20026;-69
2023/10/05 06:25:16;;;;;;;3.40;2.57;;;;;;;10.50;100.00;100269.38;4998352;28;20501;-70
2023/10/05 06:27:45;;;;;;;4.37;2.27;;;;;;;10.54;100.00;100270.69;4995735;28;20035;-69
2023/10/05 06:30:11;;;;;;;3.13;1.90;;;;;;;10.56;100.00;100270.50;4995512;28;20474;-70
2023/10/05 06:32:38;;;;;;;3.03;2.00;;;;;;;10.50;100.00;100258.72;4995603;28;20068;-69
2023/10/05 06:35:09;;;;;;;2.50;1.83;;;;;;;10.51;100.00;100264.88;4995315;28;20041;-73
2023/10/05 06:37:39;;;;;;;4.33;2.57;;;;;;;10.53;100.00;100270.84;4995509;28;20038;-71
2023/10/05 06:40:14;;;;;;;3.53;2.57;;;;;;;10.54;100.00;100289.31;4995333;28;20125;-69
2023/10/05 06:42:41;;;;;;;6.30;2.27;;;;;;;10.50;100.00;100281.84;4995009;28;20418;-69
2023/10/05 06:45:13;;;;;;;4.10;2.70;;;;;;;10.14;100.00;100222.94;4992597;28;20053;-69
2023/10/05 06:47:40;;;;;;;5.93;2.50;;;;;;;10.23;100.00;100236.06;4995260;28;20073;-68
2023/10/05 06:50:10;;;;;;;2.70;2.23;;;;;;;10.39;100.00;100255.59;4995323;28;20085;-68
2023/10/05 06:52:43;;;;;;;4.13;2.50;;;;;;;10.52;100.00;100274.53;4995110;28;20054;-67
2023/10/05 06:55:12;;;;;;;2.73;2.37;;;;;;;10.69;100.00;100300.06;4994453;28;20030;-73
2023/10/05 06:57:38;;;;;;;2.88;2.53;;;;;;;10.70;100.00;100275.09;4992380;28;20447;-67
2023/10/05 07:00:11;;;;;;;2.80;2.43;;;;;;;10.96;100.00;100289.91;4994486;28;20109;-68
2023/10/05 07:02:40;;;;;;;6.73;2.70;;;;;;;11.02;100.00;100290.06;4995403;28;20034;-68
2023/10/05 07:05:07;;;;;;;2.87;2.20;;;;;;;11.21;100.00;100288.75;4994861;28;20029;-67
2023/10/05 07:07:34;;;;;;;6.10;2.20;;;;;;;11.52;100.00;100301.16;4993380;28;20030;-69
2023/10/05 07:10:07;;;;;;;3.23;2.53;;;;;;;11.63;100.00;100285.56;4995186;28;20037;-65
2023/10/05 07:12:46;;;;;;;5.23;2.63;;;;;;;11.61;100.00;100281.44;4994498;28;20049;-66
2023/10/05 07:15:20;;;;;;;2.73;2.50;;;;;;;11.74;100.00;100306.47;4994705;28;20061;-67
2023/10/05 07:17:50;;;;;;;2.87;2.40;;;;;;;11.51;100.00;100283.50;4995119;28;20084;-66
2023/10/05 07:20:19;;;;;;;3.77;2.00;;;;;;;11.46;100.00;100279.53;4994789;28;20026;-69
2023/10/05 07:22:46;;;;;;;3.67;2.37;;;;;;;10.63;100.00;100164.94;4985208;28;20041;-65
2023/10/05 07:25:14;;;;;;;3.43;2.50;;;;;;;11.41;100.00;100295.25;4983697;28;20541;-67
2023/10/05 07:27:41;;;;;;;4.80;2.13;;;;;;;11.37;100.00;100291.28;4985486;28;20036;-66
2023/10/05 07:30:11;;;;;;;8.00;2.93;;;;;;;11.40;100.00;100282.94;4983748;28;20109;-66
2023/10/05 07:32:38;;;;;;;2.83;2.50;;;;;;;11.66;100.00;100303.88;4985753;28;20033;-65
2023/10/05 07:35:08;;;;;;;4.40;2.70;;;;;;;11.66;100.00;100287.03;4983994;28;20069;-66
2023/10/05 07:37:35;;;;;;;9.43;2.73;;;;;;;11.90;100.00;100288.69;4983338;28;20470;-66
2023/10/05 07:40:04;;;;;;;3.33;2.23;;;;;;;12.12;100.00;100294.94;4984467;28;20038;-68
2023/10/05 07:42:30;;;;;;;4.00;2.60;;;;;;;12.31;100.00;100305.06;4981912;28;20069;-66
2023/10/05 07:44:57;;;;;;;11.03;3.73;;;;;;;12.20;100.00;100284.19;4979318;28;20077;-67
2023/10/05 07:47:24;;;;;;;7.77;2.60;;;;;;;11.90;100.00;100262.81;4980748;28;20625;-70
2023/10/05 07:49:52;;;;;;;5.13;2.63;;;;;;;12.02;100.00;100314.72;4982438;28;20034;-68
2023/10/05 07:52:17;;;;;;;3.28;1.92;;;;;;;11.67;100.00;100265.53;4982048;28;20050;-66
2023/10/05 07:54:43;;;;;;;6.37;3.10;;;;;;;11.92;100.00;100319.50;4981774;28;20063;-66
2023/10/05 07:57:10;;;;;;;4.70;2.97;;;;;;;11.74;100.00;100305.63;4986091;28;20516;-66
2023/10/05 07:59:39;;;;;;;4.47;2.47;;;;;;;11.79;100.00;100324.63;4983304;28;20026;-64
2023/10/05 08:02:05;;;;;;;5.30;2.95;;;;;;;11.50;100.00;100282.66;4982540;28;20374;-66
2023/10/05 08:04:32;;;;;;;3.30;2.77;;;;;;;11.64;100.00;100305.06;4985264;28;20375;-66
2023/10/05 08:06:58;;;;;;;3.40;2.63;;;;;;;11.77;100.00;100306.09;4984430;28;20038;-66
2023/10/05 08:09:26;;;;;;;4.20;2.53;;;;;;;11.86;100.00;100314.91;4985342;28;20030;-65
2023/10/05 08:11:53;;;;;;;3.38;2.20;;;;;;;10.93;100.00;100171.19;4985343;28;20022;-65
2023/10/05 08:14:21;;;;;;;6.17;2.90;;;;;;;11.73;100.00;100311.97;4982560;28;20026;-67
2023/10/05 08:16:50;;;;;;;2.95;2.75;;;;;;;11.69;100.00;100300.00;4981771;28;20080;-67
2023/10/05 08:19:16;;;;;;;5.40;2.43;;;;;;;11.86;100.00;100317.56;4986701;28;20041;-68
2023/10/05 08:21:42;;;;;;;4.93;2.50;;;;;;;11.89;100.00;100306.53;4982262;28;20030;-69
2023/10/05 08:24:08;;;;;;;4.07;2.63;;;;;;;11.80;100.00;100262.25;4984253;28;20027;-66
2023/10/05 08:26:39;;;;;;;2.50;2.20;;;;;;;12.39;100.00;100337.00;4982341;28;20046;-66
2023/10/05 08:29:06;;;;;;;5.30;3.10;;;;;;;12.35;100.00;100325.88;4981476;28;20038;-66
2023/10/05 08:31:33;;;;;;;5.40;2.60;;;;;;;12.20;100.00;100337.56;4981233;28;20035;-66
2023/10/05 08:34:00;;;;;;;9.43;3.27;;;;;;;11.98;100.00;100312.59;4983826;28;20023;-66
2023/10/05 08:36:26;;;;;;;3.93;2.20;;;;;;;12.12;100.00;100329.63;4980328;28;20023;-65
2023/10/05 08:38:55;;;;;;;5.13;2.60;;;;;;;12.10;100.00;100322.63;4984278;28;20386;-66
2023/10/05 08:41:34;;;;;;;5.27;2.40;;;;;;;12.02;100.00;100305.88;4983974;28;20462;-66
2023/10/05 08:44:00;;;;;;;;;;;;;;;12.25;100.00;100327.16;4983494;28;20030;-66
2023/10/05 08:46:27;;;;;;;4.00;2.40;;;;;;;11.84;100.00;100278.72;4981559;28;19909;-68
2023/10/05 08:48:55;;;;;;;4.03;2.27;;;;;;;11.95;100.00;100316.47;4989650;28;20386;-66
2023/10/05 08:51:24;;;;;;;4.28;2.25;;;;;;;11.91;100.00;100315.19;4987174;28;20349;-65
2023/10/05 08:53:57;;;;;;;3.57;2.20;;;;;;;12.08;100.00;100361.19;4989090;28;20102;-66
2023/10/05 08:56:24;;;;;;;7.27;2.23;;;;;;;11.87;100.00;100339.75;4989582;28;20041;-64
2023/10/05 08:58:52;;;;;;;5.63;2.20;;;;;;;11.65;100.00;100338.72;4991375;28;20522;-68
2023/10/05 09:01:30;;;;;;;9.45;2.90;;;;;;;11.54;100.00;100342.63;4988744;28;20046;-67
2023/10/05 09:04:11;;;;;;;4.50;2.27;;;;;;;11.55;100.00;100316.78;4989126;28;20038;-67
2023/10/05 09:06:49;;;;;;;5.30;2.07;;;;;;;11.85;100.00;100334.56;4988895;28;20065;-67
2023/10/05 09:09:38;;;;;;;4.90;2.30;;;;;;;11.98;100.00;100321.44;4988230;28;20018;-66
2023/10/05 09:12:37;;;;;;;3.57;2.20;;;;;;;12.25;100.00;100330.66;4976184;28;20030;-66
2023/10/05 09:15:10;;;;;;;5.10;2.60;;;;;;;12.44;100.00;100315.09;4984527;28;20093;-69
2023/10/05 09:17:37;;;;;;;4.67;2.13;;;;;;;11.90;100.00;100208.63;4983239;28;20044;-66
2023/10/05 09:20:21;;;;;;;3.23;2.27;;;;;;;12.84;100.00;100332.44;4984033;28;20085;-67
2023/10/05 09:22:53;;;;;;;3.23;1.90;;;;;;;12.84;100.00;100308.41;4983200;28;20019;-67
2023/10/05 09:25:26;;;;;;;3.57;2.07;;;;;;;13.05;100.00;100316.47;4984225;28;20039;-65
2023/10/05 09:27:59;;;;;;;2.70;2.37;;;;;;;13.29;100.00;100316.09;4984762;28;20042;-67
2023/10/05 09:31:11;;;;;;;5.03;2.30;;;;;;;13.40;100.00;100321.97;4985867;28;20116;-66
2023/10/05 09:33:26;;;;;;;3.67;2.60;;;;;;;13.21;100.00;100318.91;4980761;28;20126;-65
2023/10/05 09:36:05;;;;;;;3.73;1.67;;;;;;;13.09;100.00;100317.72;4982062;28;20027;-67
2023/10/05 09:38:35;;;;;;;2.60;1.77;;;;;;;12.79;100.00;100322.31;4983000;28;20066;-67
2023/10/05 09:41:02;;;;;;;2.13;1.80;;;;;;;12.61;100.00;100313.88;4984193;28;20406;-67
2023/10/05 09:43:37;;;;;;;2.53;1.90;;;;;;;12.73;100.00;100330.28;4986648;28;20458;-66
2023/10/05 09:46:09;;;;;;;3.47;1.63;;;;;;;12.69;100.00;100319.94;4980009;28;20034;-69
2023/10/05 09:48:37;;;;;;;2.23;1.93;;;;;;;12.78;100.00;100327.88;4978756;28;20030;-66
2023/10/05 09:51:06;;;;;;;4.43;1.73;;;;;;;12.87;100.00;100322.22;4980029;28;20069;-67
2023/10/05 09:53:35;;;;;;;3.57;1.97;;;;;;;13.02;100.00;100319.50;4984781;28;20081;-65
2023/10/05 09:56:01;;;;;;;2.47;1.50;;;;;;;12.91;100.00;100298.59;4983204;28;20036;-67
2023/10/05 09:58:28;;;;;;;4.63;2.17;;;;;;;13.04;100.00;100330.84;4980888;28;20054;-69
2023/10/05 10:00:55;;;;;;;4.73;2.23;;;;;;;12.94;100.00;100316.94;4983730;28;20029;-65
2023/10/05 10:03:21;;;;;;;5.20;1.50;;;;;;;12.83;100.00;100334.28;4989052;28;20031;-65
2023/10/05 10:06:07;;;;;;;2.43;2.23;;;;;;;12.89;100.00;100340.72;4991556;28;20041;-63
2023/10/05 10:08:35;;;;;;;4.20;1.80;;;;;;;12.79;100.00;100311.63;4991961;28;20493;-66
2023/10/05 10:11:06;;;;;;;2.87;1.90;;;;;;;12.90;100.00;100313.00;4989427;28;20023;-67
2023/10/05 10:13:37;;;;;;;1.87;1.70;;;;;;;13.01;100.00;100332.06;4989320;28;20736;-67
2023/10/05 10:16:17;;;;;;;3.63;3.00;;;;;;;13.01;100.00;100325.88;4989392;28;20034;-66
2023/10/05 10:18:44;;;;;;;2.10;1.30;;;;;;;12.88;100.00;100315.03;4994669;28;20058;-69
2023/10/05 10:21:24;;;;;;;2.43;1.63;;;;;;;12.97;100.00;100329.91;4995007;28;20038;-69
2023/10/05 10:23:59;;;;;;;3.00;1.80;;;;;;;12.93;100.00;100331.31;4988294;28;20021;-66
2023/10/05 10:26:28;;;;;;;1.93;1.60;;;;;;;12.83;100.00;100312.09;4986770;28;20133;-66
2023/10/05 10:31:25;;;;;;;2.53;1.80;;;;;;;12.63;100.00;100291.31;4984085;28;20106;-67
2023/10/05 10:33:51;;;;;;;2.07;1.63;;;;;;;12.73;99.01;100303.56;4984807;28;20471;-68
2023/10/05 10:36:53;;;;;;;2.53;2.17;;;;;;;13.09;99.78;100327.59;4985458;28;20034;-67
2023/10/05 10:39:33;;;;;;;2.40;1.80;;;;;;;13.10;97.39;100281.97;4980835;28;20043;-64
2023/10/05 10:42:18;;;;;;;2.60;2.40;;;;;;;13.39;96.69;100293.56;4985318;28;20241;-67
2023/10/05 10:47:22;;;;;;;3.10;2.10;;;;;;;13.68;93.43;100320.16;4986978;28;20034;-66
2023/10/05 10:50:04;;;;;;;2.20;1.50;;;;;;;13.67;90.38;100313.16;4986323;28;20088;-65
2023/10/05 10:52:30;;;;;;;3.77;2.13;;;;;;;13.64;93.17;100294.81;4981216;28;20118;-65
2023/10/05 10:54:59;;;;;;;2.73;2.00;;;;;;;13.78;93.95;100309.13;4984705;28;20113;-70
2023/10/05 10:57:25;;;;;;;3.67;2.37;;;;;;;13.76;94.05;100295.94;4986175;28;20129;-64
2023/10/05 11:00:37;;;;;;;3.87;2.53;;;;;;;13.80;91.73;100291.84;4983320;28;20113;-65
2023/10/05 11:02:38;;;;;;;3.50;2.47;;;;;;;13.89;92.75;100296.03;4984564;28;20375;-67
2023/10/05 11:05:05;;;;;;;3.90;2.63;;;;;;;13.79;93.03;100292.03;4986332;28;20034;-66
2023/10/05 11:07:34;;;;;;;6.90;3.30;;;;;;;13.52;94.53;100277.63;4981670;28;20023;-68
2023/10/05 11:10:03;;;;;;;4.03;2.77;;;;;;;13.44;95.09;100296.50;4985816;28;20042;-68
2023/10/05 11:12:42;;;;;;;5.57;3.40;;;;;;;13.44;96.58;100288.47;4980724;28;20034;-68
2023/10/05 11:15:18;;;;;;;6.35;3.30;;;;;;;13.48;98.09;100273.69;4985622;28;20078;-69
2023/10/05 11:17:45;;;;;;;5.80;2.07;;;;;;;13.50;95.12;100274.31;4981344;28;20030;-70
2023/10/05 11:20:25;;;;;;;4.95;2.33;;;;;;;13.71;95.85;100300.22;4984006;28;20508;-70
2023/10/05 11:22:55;;;;;;;2.87;1.60;;;;;;;13.73;93.07;100277.59;4985550;28;20128;-69
2023/10/05 11:25:31;;;;;;;5.27;2.40;;;;;;;13.79;94.73;100260.75;4981124;28;20482;-66
2023/10/05 11:28:00;;;;;;;4.23;1.90;;;;;;;14.15;93.57;100275.78;4985498;28;20805;-68
2023/10/05 11:30:41;;;;;;;2.88;1.90;;;;;;;14.21;92.54;100280.38;4984500;28;20077;-66
2023/10/05 11:33:19;;;;;;;2.13;1.30;;;;;;;14.13;89.91;100281.34;4982498;28;20022;-70
2023/10/05 11:35:49;;;;;;;4.03;2.03;;;;;;;14.15;90.74;100289.19;4986038;28;20130;-69
2023/10/05 11:38:16;;;;;;;5.60;1.93;;;;;;;14.09;90.82;100282.78;4983091;28;20021;-66
2023/10/05 11:40:49;;;;;;;3.80;1.90;;;;;;;14.02;91.17;100289.13;4982945;28;20034;-68
2023/10/05 11:43:17;;;;;;;3.03;1.70;;;;;;;13.86;90.37;100277.66;4983310;28;20117;-67
2023/10/05 11:46:17;;;;;;;3.30;1.60;;;;;;;13.86;91.41;100271.50;4990852;28;20042;-68
2023/10/05 11:48:48;;;;;;;2.38;1.75;;;;;;;13.83;92.01;100278.06;4983436;28;20066;-68
2023/10/05 11:51:19;;;;;;;3.33;1.90;;;;;;;13.82;88.98;100291.66;4982895;28;20358;-66
2023/10/05 11:53:50;;;;;;;2.57;1.80;;;;;;;13.73;90.29;100288.28;4981794;28;20129;-67
2023/10/05 11:56:17;;;;;;;3.17;1.77;;;;;;;13.66;92.32;100276.72;4984693;28;20039;-68
2023/10/05 11:58:46;;;;;;;2.73;1.73;;;;;;;13.41;93.27;100268.28;4990505;28;20022;-68